createdAt,value
2019-03-20T00:00:16.952Z,95.72
2019-03-20T00:01:16.934Z,97.19
2019-03-20T00:02:16.929Z,96.92
2019-03-20T00:03:16.947Z,96.92
2019-03-20T00:04:16.903Z,96.71
2019-03-20T00:05:16.907Z,96.08
2019-03-20T00:06:16.883Z,95.76
2019-03-20T00:07:16.870Z,96.29
2019-03-20T00:08:16.889Z,96.92
2019-03-20T00:09:16.851Z,97.34
2019-03-20T00:10:16.865Z,97.76
2019-03-20T00:11:16.838Z,98.46
2019-03-20T00:12:16.829Z,98.66
2019-03-20T00:13:16.841Z,97.72
2019-03-20T00:14:16.803Z,97.09
2019-03-20T00:15:16.971Z,96.88
2019-03-20T00:16:16.807Z,97.09
2019-03-20T00:17:16.776Z,97.51
2019-03-20T00:18:16.799Z,97.41
2019-03-20T00:19:16.751Z,97.41
2019-03-20T00:20:16.744Z,97.72
2019-03-20T00:21:16.745Z,97.61
2019-03-20T00:22:16.729Z,97.55
2019-03-20T00:23:16.755Z,95.87
2019-03-20T00:24:16.700Z,95.45
2019-03-20T00:25:16.695Z,96.19
2019-03-20T00:26:16.679Z,95.55
2019-03-20T00:27:16.700Z,95.76
2019-03-20T00:28:16.692Z,95.87
2019-03-20T00:29:16.669Z,95.34
2019-03-20T00:30:16.654Z,95.18
2019-03-20T00:31:16.637Z,95.18
2019-03-20T00:32:16.624Z,95.07
2019-03-20T00:33:16.636Z,95.60
2019-03-20T00:34:16.602Z,95.70
2019-03-20T00:35:16.598Z,96.02
2019-03-20T00:36:16.598Z,95.49
2019-03-20T00:37:16.576Z,94.54
2019-03-20T00:38:16.602Z,94.27
2019-03-20T00:39:16.562Z,94.27
2019-03-20T00:40:16.541Z,95.53
2019-03-20T00:41:16.529Z,95.53
2019-03-20T00:42:16.522Z,95.64
2019-03-20T00:43:16.540Z,95.79
2019-03-20T00:44:16.504Z,95.64
2019-03-20T00:45:16.520Z,96.06
2019-03-20T00:46:16.487Z,96.06
2019-03-20T00:47:16.475Z,96.80
2019-03-20T00:48:16.486Z,97.27
2019-03-20T00:49:16.457Z,96.27
2019-03-20T00:50:16.440Z,97.33
2019-03-20T00:51:16.457Z,96.80
2019-03-20T00:52:16.429Z,96.80
2019-03-20T00:53:16.418Z,95.89
2019-03-20T00:54:16.431Z,95.57
2019-03-20T00:55:16.424Z,94.31
2019-03-20T00:56:16.387Z,94.10
2019-03-20T00:57:16.378Z,94.53
2019-03-20T00:58:16.369Z,96.73
2019-03-20T00:59:16.387Z,97.16
2019-03-20T01:00:16.350Z,96.73
2019-03-20T01:01:16.349Z,98.32
2019-03-20T01:02:16.328Z,99.05
2019-03-20T01:03:16.320Z,98.49
2019-03-20T01:04:16.331Z,98.74
2019-03-20T01:05:16.313Z,97.58
2019-03-20T01:06:16.305Z,98.00
2019-03-20T01:07:16.280Z,97.89
2019-03-20T01:08:16.276Z,96.63
2019-03-20T01:09:16.280Z,96.53
2019-03-20T01:10:16.250Z,95.62
2019-03-20T01:11:16.235Z,94.89
2019-03-20T01:12:17.711Z,95.83
2019-03-20T01:13:16.245Z,95.47
2019-03-20T01:14:16.239Z,96.15
2019-03-20T01:15:16.203Z,97.16
2019-03-20T01:16:16.188Z,97.16
2019-03-20T01:17:16.174Z,97.16
2019-03-20T01:18:16.172Z,97.16
2019-03-20T01:19:16.181Z,95.79
2019-03-20T01:20:16.172Z,96.04
2019-03-20T01:21:16.138Z,95.73
2019-03-20T01:22:16.130Z,95.51
2019-03-20T01:23:16.132Z,95.98
2019-03-20T01:24:16.135Z,96.25
2019-03-20T01:25:16.096Z,95.73
2019-03-20T01:26:16.087Z,96.09
2019-03-20T01:27:16.076Z,97.35
2019-03-20T01:28:16.082Z,97.03
2019-03-20T01:29:16.093Z,97.20
2019-03-20T01:30:16.074Z,96.30
2019-03-20T01:31:16.728Z,96.15
2019-03-20T01:32:16.038Z,96.09
2019-03-20T01:33:16.037Z,96.41
2019-03-20T01:34:16.031Z,97.14
2019-03-20T01:35:23.445Z,99.15
2019-03-20T01:36:17.009Z,98.72
2019-03-20T01:37:15.995Z,98.93
2019-03-20T01:38:15.967Z,98.57
2019-03-20T01:39:15.983Z,99.04
2019-03-20T01:40:15.947Z,98.57
2019-03-20T01:41:15.944Z,98.15
2019-03-20T01:42:15.928Z,97.14
2019-03-20T01:43:15.925Z,95.77
2019-03-20T01:44:15.943Z,96.83
2019-03-20T01:45:16.050Z,96.83
2019-03-20T01:46:15.928Z,97.25
2019-03-20T01:47:15.878Z,97.25
2019-03-20T01:48:15.874Z,97.35
2019-03-20T01:49:15.882Z,97.14
2019-03-20T01:50:15.855Z,97.35
2019-03-20T01:51:15.839Z,97.73
2019-03-20T01:52:15.983Z,97.45
2019-03-20T01:53:15.847Z,97.99
2019-03-20T01:54:16.756Z,98.93
2019-03-20T01:55:15.805Z,97.73
2019-03-20T01:56:15.792Z,98.89
2019-03-20T01:57:15.909Z,98.89
2019-03-20T01:58:15.780Z,98.93
2019-03-20T01:59:15.781Z,99.31
2019-03-20T02:00:15.761Z,99.67
2019-03-20T02:01:15.786Z,99.52
2019-03-20T02:02:15.738Z,99.10
2019-03-20T02:03:15.722Z,98.89
2019-03-20T02:04:15.717Z,99.31
2019-03-20T02:05:15.719Z,98.79
2019-03-20T02:06:16.266Z,98.79
2019-03-20T02:07:15.724Z,99.10
2019-03-20T02:08:15.786Z,98.68
2019-03-20T02:09:15.674Z,98.93
2019-03-20T02:10:15.660Z,97.41
2019-03-20T02:11:15.677Z,96.15
2019-03-20T02:12:15.646Z,96.09
2019-03-20T02:13:15.625Z,96.61
2019-03-20T02:14:15.626Z,96.72
2019-03-20T02:15:15.615Z,95.77
2019-03-20T02:16:15.593Z,96.45
2019-03-20T02:17:15.619Z,97.35
2019-03-20T02:18:15.595Z,97.56
2019-03-20T02:19:15.562Z,97.71
2019-03-20T02:20:15.557Z,96.93
2019-03-20T02:21:15.555Z,97.08
2019-03-20T02:22:15.538Z,97.03
2019-03-20T02:23:15.678Z,97.39
2019-03-20T02:24:15.840Z,96.97
2019-03-20T02:25:15.668Z,97.39
2019-03-20T02:26:15.546Z,97.08
2019-03-20T02:27:15.553Z,97.33
2019-03-20T02:28:15.511Z,96.91
2019-03-20T02:29:15.513Z,96.07
2019-03-20T02:30:15.605Z,96.07
2019-03-20T02:31:15.497Z,96.07
2019-03-20T02:32:15.508Z,97.44
2019-03-20T02:33:15.558Z,96.07
2019-03-20T02:34:15.472Z,97.23
2019-03-20T02:35:15.466Z,97.13
2019-03-20T02:36:15.518Z,95.75
2019-03-20T02:37:15.438Z,95.86
2019-03-20T02:38:15.395Z,94.84
2019-03-20T02:39:15.456Z,94.00
2019-03-20T02:40:15.369Z,95.90
2019-03-20T02:41:15.367Z,96.64
2019-03-20T02:42:15.353Z,96.53
2019-03-20T02:43:15.396Z,97.97
2019-03-20T02:44:15.383Z,98.92
2019-03-20T02:45:15.318Z,99.02
2019-03-20T02:46:15.299Z,97.86
2019-03-20T02:47:15.291Z,98.28
2019-03-20T02:48:15.289Z,97.69
2019-03-20T02:49:15.334Z,97.97
2019-03-20T02:50:15.321Z,97.97
2019-03-20T02:51:15.275Z,97.55
2019-03-20T02:52:15.357Z,97.44
2019-03-20T02:53:15.233Z,97.55
2019-03-20T02:54:15.256Z,97.38
2019-03-20T02:55:15.246Z,97.23
2019-03-20T02:56:15.204Z,97.44
2019-03-20T02:57:17.409Z,97.86
2019-03-20T02:58:15.183Z,97.86
2019-03-20T02:59:15.230Z,97.33
2019-03-20T03:00:15.218Z,97.44
2019-03-20T03:01:15.166Z,97.33
2019-03-20T03:02:15.224Z,95.96
2019-03-20T03:03:15.160Z,96.00
2019-03-20T03:04:15.124Z,96.11
2019-03-20T03:05:15.139Z,96.22
2019-03-20T03:06:15.101Z,96.22
2019-03-20T03:07:15.088Z,95.90
2019-03-20T03:08:15.084Z,95.90
2019-03-20T03:09:15.114Z,97.17
2019-03-20T03:10:15.284Z,97.38
2019-03-20T03:11:15.109Z,96.64
2019-03-20T03:12:15.091Z,97.38
2019-03-20T03:13:15.120Z,96.15
2019-03-20T03:14:15.083Z,95.73
2019-03-20T03:15:15.086Z,94.99
2019-03-20T03:16:15.127Z,95.10
2019-03-20T03:17:15.051Z,95.03
2019-03-20T03:18:15.066Z,95.25
2019-03-20T03:19:15.018Z,96.05
2019-03-20T03:20:15.077Z,95.73
2019-03-20T03:21:15.368Z,96.73
2019-03-20T03:22:14.988Z,96.51
2019-03-20T03:23:14.986Z,96.20
2019-03-20T03:24:14.980Z,96.30
2019-03-20T03:25:14.991Z,95.67
2019-03-20T03:26:14.968Z,96.09
2019-03-20T03:27:15.028Z,96.83
2019-03-20T03:28:15.009Z,97.36
2019-03-20T03:29:14.949Z,96.83
2019-03-20T03:30:15.003Z,95.98
2019-03-20T03:31:14.899Z,96.20
2019-03-20T03:32:14.900Z,96.14
2019-03-20T03:33:14.880Z,96.83
2019-03-20T03:34:14.957Z,97.09
2019-03-20T03:35:17.892Z,98.21
2019-03-20T03:36:21.269Z,99.16
2019-03-20T03:37:15.842Z,98.90
2019-03-20T03:38:14.831Z,98.90
2019-03-20T03:39:14.821Z,99.16
2019-03-20T03:40:14.805Z,98.21
2019-03-20T03:41:14.888Z,97.78
2019-03-20T03:42:14.804Z,97.53
2019-03-20T03:43:14.794Z,97.47
2019-03-20T03:44:14.780Z,97.42
2019-03-20T03:45:15.302Z,97.47
2019-03-20T03:46:14.836Z,97.42
2019-03-20T03:47:14.754Z,97.63
2019-03-20T03:48:14.753Z,99.01
2019-03-20T03:49:14.767Z,98.86
2019-03-20T03:50:14.720Z,97.74
2019-03-20T03:51:14.802Z,97.42
2019-03-20T03:52:14.698Z,96.15
2019-03-20T03:53:14.680Z,96.15
2019-03-20T03:54:14.695Z,96.30
2019-03-20T03:55:14.799Z,96.51
2019-03-20T03:56:14.749Z,95.56
2019-03-20T03:57:14.717Z,96.73
2019-03-20T03:58:14.633Z,97.05
2019-03-20T03:59:14.620Z,97.47
2019-03-20T04:00:14.634Z,97.61
2019-03-20T04:01:14.670Z,98.31
2019-03-20T04:02:14.593Z,99.26
2019-03-20T04:03:14.592Z,99.26
2019-03-20T04:04:14.578Z,99.26
2019-03-20T04:05:14.566Z,99.26
2019-03-20T04:06:14.564Z,99.26
2019-03-20T04:07:14.629Z,99.26
2019-03-20T04:08:14.534Z,99.05
2019-03-20T04:09:14.532Z,97.99
2019-03-20T04:10:14.524Z,97.67
2019-03-20T04:11:14.606Z,97.25
2019-03-20T04:12:14.512Z,96.62
2019-03-20T04:13:14.489Z,96.51
2019-03-20T04:14:14.490Z,97.51
2019-03-20T04:15:14.595Z,96.34
2019-03-20T04:16:14.459Z,96.88
2019-03-20T04:17:14.507Z,96.56
2019-03-20T04:18:14.485Z,97.57
2019-03-20T04:19:14.429Z,97.51
2019-03-20T04:20:14.480Z,97.30
2019-03-20T04:21:14.439Z,97.93
2019-03-20T04:22:14.444Z,95.71
2019-03-20T04:23:14.398Z,96.14
2019-03-20T04:24:14.380Z,96.24
2019-03-20T04:25:14.362Z,95.76
2019-03-20T04:26:14.357Z,96.14
2019-03-20T04:27:14.414Z,95.65
2019-03-20T04:28:14.347Z,96.28
2019-03-20T04:29:14.337Z,95.97
2019-03-20T04:30:14.338Z,96.28
2019-03-20T04:31:14.307Z,97.34
2019-03-20T04:32:14.395Z,97.55
2019-03-20T04:33:14.290Z,97.45
2019-03-20T04:34:14.282Z,96.71
2019-03-20T04:35:14.305Z,96.71
2019-03-20T04:36:14.280Z,96.18
2019-03-20T04:37:14.343Z,97.13
2019-03-20T04:38:14.252Z,96.81
2019-03-20T04:39:14.305Z,96.81
2019-03-20T04:40:14.271Z,96.18
2019-03-20T04:41:14.223Z,95.90
2019-03-20T04:42:14.252Z,95.12
2019-03-20T04:43:14.202Z,94.85
2019-03-20T04:44:14.168Z,95.37
2019-03-20T04:45:14.273Z,95.80
2019-03-20T04:46:14.157Z,95.59
2019-03-20T04:47:14.160Z,95.06
2019-03-20T04:48:14.154Z,96.01
2019-03-20T04:49:14.128Z,95.69
2019-03-20T04:50:14.131Z,96.22
2019-03-20T04:51:14.170Z,94.68
2019-03-20T04:52:14.098Z,95.00
2019-03-20T04:53:14.095Z,94.21
2019-03-20T04:54:14.075Z,95.31
2019-03-20T04:55:14.089Z,95.73
2019-03-20T04:56:14.141Z,95.73
2019-03-20T04:57:14.068Z,96.37
2019-03-20T04:58:14.150Z,96.16
2019-03-20T04:59:14.047Z,97.81
2019-03-20T05:00:14.013Z,98.24
2019-03-20T05:01:14.020Z,99.40
2019-03-20T05:02:14.067Z,99.93
2019-03-20T05:03:14.017Z,99.99
2019-03-20T05:04:14.143Z,99.99
2019-03-20T05:05:14.055Z,99.99
2019-03-20T05:06:13.988Z,99.67
2019-03-20T05:07:14.081Z,99.35
2019-03-20T05:08:13.928Z,98.19
2019-03-20T05:09:13.912Z,97.71
2019-03-20T05:10:13.887Z,97.17
2019-03-20T05:11:13.890Z,97.49
2019-03-20T05:12:13.868Z,96.86
2019-03-20T05:13:13.893Z,96.33
2019-03-20T05:14:13.875Z,96.86
2019-03-20T05:15:13.840Z,95.80
2019-03-20T05:16:13.867Z,96.75
2019-03-20T05:17:13.821Z,97.81
2019-03-20T05:18:13.809Z,97.49
2019-03-20T05:19:13.806Z,97.60
2019-03-20T05:20:13.792Z,97.39
2019-03-20T05:21:13.903Z,98.19
2019-03-20T05:22:13.768Z,99.25
2019-03-20T05:23:13.765Z,99.35
2019-03-20T05:24:13.764Z,99.31
2019-03-20T05:25:14.839Z,98.99
2019-03-20T05:26:13.759Z,99.26
2019-03-20T05:27:13.729Z,99.99
2019-03-20T05:28:13.733Z,99.90
2019-03-20T05:29:13.710Z,99.26
2019-03-20T05:30:13.703Z,97.05
2019-03-20T05:31:13.727Z,97.36
2019-03-20T05:32:13.681Z,97.25
2019-03-20T05:33:13.696Z,97.78
2019-03-20T05:34:13.654Z,97.41
2019-03-20T05:35:13.649Z,96.45
2019-03-20T05:36:13.702Z,95.39
2019-03-20T05:37:13.650Z,96.66
2019-03-20T05:38:13.762Z,96.03
2019-03-20T05:39:15.759Z,96.56
2019-03-20T05:40:13.594Z,96.41
2019-03-20T05:41:13.619Z,96.41
2019-03-20T05:42:13.579Z,95.71
2019-03-20T05:43:13.564Z,95.56
2019-03-20T05:44:13.552Z,95.18
2019-03-20T05:45:13.584Z,95.56
2019-03-20T05:46:13.569Z,95.25
2019-03-20T05:47:13.531Z,94.09
2019-03-20T05:48:13.521Z,93.49
2019-03-20T05:49:13.513Z,94.34
2019-03-20T05:50:13.496Z,95.18
2019-03-20T05:51:13.517Z,94.23
2019-03-20T05:52:13.489Z,93.02
2019-03-20T05:53:13.468Z,93.02
2019-03-20T05:54:13.469Z,93.09
2019-03-20T05:55:13.457Z,93.19
2019-03-20T05:56:13.471Z,92.94
2019-03-20T05:57:13.446Z,92.73
2019-03-20T05:58:13.451Z,91.53
2019-03-20T05:59:13.414Z,89.84
2019-03-20T06:00:13.397Z,89.73
2019-03-20T06:01:13.423Z,90.85
2019-03-20T06:02:13.381Z,90.75
2019-03-20T06:03:13.373Z,91.86
2019-03-20T06:04:13.377Z,92.92
2019-03-20T06:05:13.368Z,92.88
2019-03-20T06:06:13.565Z,92.35
2019-03-20T06:07:21.116Z,92.94
2019-03-20T06:08:14.323Z,93.15
2019-03-20T06:09:13.327Z,93.11
2019-03-20T06:10:13.326Z,93.38
2019-03-20T06:11:13.294Z,93.55
2019-03-20T06:12:20.241Z,93.13
2019-03-20T06:13:13.276Z,92.46
2019-03-20T06:14:13.268Z,90.99
2019-03-20T06:15:13.261Z,90.84
2019-03-20T06:16:13.274Z,89.69
2019-03-20T06:17:13.232Z,89.22
2019-03-20T06:18:13.237Z,88.07
2019-03-20T06:19:13.211Z,88.28
2019-03-20T06:20:13.204Z,88.02
2019-03-20T06:21:13.222Z,88.41
2019-03-20T06:22:13.195Z,87.99
2019-03-20T06:23:13.181Z,88.05
2019-03-20T06:24:13.163Z,88.47
2019-03-20T06:25:13.165Z,88.54
2019-03-20T06:26:13.741Z,88.71
2019-03-20T06:27:13.142Z,88.96
2019-03-20T06:28:13.145Z,88.49
2019-03-20T06:29:13.123Z,87.13
2019-03-20T06:30:13.110Z,85.73
2019-03-20T06:31:13.158Z,87.09
2019-03-20T06:32:13.089Z,87.16
2019-03-20T06:33:13.082Z,86.43
2019-03-20T06:34:13.062Z,86.60
2019-03-20T06:35:13.065Z,86.38
2019-03-20T06:36:13.046Z,86.14
2019-03-20T06:37:13.081Z,85.72
2019-03-20T06:38:13.020Z,85.68
2019-03-20T06:39:13.014Z,85.89
2019-03-20T06:40:12.998Z,85.89
2019-03-20T06:41:13.026Z,86.10
2019-03-20T06:42:12.982Z,85.85
2019-03-20T06:43:12.975Z,85.60
2019-03-20T06:44:12.967Z,85.71
2019-03-20T06:45:12.969Z,85.50
2019-03-20T06:46:12.983Z,85.25
2019-03-20T06:47:12.936Z,84.73
2019-03-20T06:48:12.929Z,84.06
2019-03-20T06:49:12.934Z,84.38
2019-03-20T06:50:12.966Z,84.34
2019-03-20T06:51:12.926Z,83.92
2019-03-20T06:52:12.941Z,83.63
2019-03-20T06:53:12.883Z,83.53
2019-03-20T06:54:13.728Z,84.26
2019-03-20T06:55:12.885Z,84.30
2019-03-20T06:56:12.861Z,84.61
2019-03-20T06:57:12.870Z,84.78
2019-03-20T06:58:12.832Z,84.88
2019-03-20T06:59:12.817Z,85.16
2019-03-20T07:00:12.803Z,84.95
2019-03-20T07:01:12.792Z,84.28
2019-03-20T07:02:12.801Z,84.28
2019-03-20T07:03:12.773Z,83.73
2019-03-20T07:04:12.765Z,82.96
2019-03-20T07:05:12.757Z,83.06
2019-03-20T07:06:12.810Z,81.60
2019-03-20T07:07:15.274Z,82.71
2019-03-20T07:08:12.720Z,82.09
2019-03-20T07:09:12.711Z,81.95
2019-03-20T07:10:12.700Z,81.12
2019-03-20T07:11:12.708Z,81.70
2019-03-20T07:12:12.705Z,82.70
2019-03-20T07:13:12.669Z,81.87
2019-03-20T07:14:13.236Z,80.59
2019-03-20T07:15:12.652Z,78.34
2019-03-20T07:16:12.632Z,78.41
2019-03-20T07:17:12.656Z,78.78
2019-03-20T07:18:12.614Z,78.78
2019-03-20T07:19:12.607Z,78.89
2019-03-20T07:20:12.593Z,78.96
2019-03-20T07:21:12.598Z,78.72
2019-03-20T07:22:12.607Z,77.78
2019-03-20T07:23:12.583Z,78.68
2019-03-20T07:24:12.554Z,77.95
2019-03-20T07:25:12.544Z,75.12
2019-03-20T07:26:12.544Z,76.05
2019-03-20T07:27:12.814Z,75.74
2019-03-20T07:28:12.514Z,75.81
2019-03-20T07:29:12.501Z,76.02
2019-03-20T07:30:12.502Z,74.12
2019-03-20T07:31:15.666Z,73.08
2019-03-20T07:32:12.491Z,74.02
2019-03-20T07:33:12.496Z,73.29
2019-03-20T07:34:12.459Z,73.05
2019-03-20T07:35:12.458Z,71.70
2019-03-20T07:36:12.438Z,71.60
2019-03-20T07:37:12.438Z,71.78
2019-03-20T07:38:12.440Z,72.05
2019-03-20T07:39:12.403Z,74.33
2019-03-20T07:40:12.403Z,73.39
2019-03-20T07:41:12.411Z,72.53
2019-03-20T07:42:12.399Z,70.78
2019-03-20T07:43:12.392Z,70.12
2019-03-20T07:44:12.358Z,70.78
2019-03-20T07:45:12.340Z,73.22
2019-03-20T07:46:12.336Z,73.67
2019-03-20T07:47:12.350Z,72.12
2019-03-20T07:48:21.488Z,72.78
2019-03-20T07:49:13.353Z,71.41
2019-03-20T07:50:12.360Z,70.47
2019-03-20T07:51:12.278Z,69.93
2019-03-20T07:52:12.279Z,67.03
2019-03-20T07:53:12.359Z,69.38
2019-03-20T07:54:12.278Z,69.96
2019-03-20T07:55:12.232Z,68.49
2019-03-20T07:56:12.228Z,66.09
2019-03-20T07:57:12.221Z,67.02
2019-03-20T07:58:12.255Z,66.06
2019-03-20T07:59:12.192Z,64.59
2019-03-20T08:00:12.883Z,64.11
2019-03-20T08:01:12.181Z,64.03
2019-03-20T08:02:12.173Z,64.14
2019-03-20T08:03:12.188Z,64.44
2019-03-20T08:04:12.137Z,64.00
2019-03-20T08:05:12.165Z,63.97
2019-03-20T08:06:12.118Z,63.64
2019-03-20T08:07:12.107Z,63.81
2019-03-20T08:08:12.138Z,63.22
2019-03-20T08:09:12.109Z,63.60
2019-03-20T08:10:12.074Z,63.06
2019-03-20T08:11:12.065Z,60.91
2019-03-20T08:12:12.096Z,61.93
2019-03-20T08:13:12.101Z,60.49
2019-03-20T08:14:12.042Z,61.42
2019-03-20T08:15:12.029Z,60.91
2019-03-20T08:16:12.023Z,60.60
2019-03-20T08:17:12.016Z,60.39
2019-03-20T08:18:12.000Z,59.80
2019-03-20T08:19:12.016Z,60.73
2019-03-20T08:20:11.977Z,61.04
2019-03-20T08:21:12.009Z,61.11
2019-03-20T08:22:11.981Z,57.70
2019-03-20T08:23:11.969Z,57.75
2019-03-20T08:24:11.938Z,58.00
2019-03-20T08:25:11.919Z,57.56
2019-03-20T08:26:11.908Z,55.28
2019-03-20T08:27:11.900Z,55.66
2019-03-20T08:28:11.919Z,53.03
2019-03-20T08:29:11.902Z,52.29
2019-03-20T08:30:13.736Z,53.39
2019-03-20T08:31:11.859Z,53.57
2019-03-20T08:32:11.858Z,53.26
2019-03-20T08:33:11.869Z,52.72
2019-03-20T08:34:11.828Z,51.37
2019-03-20T08:35:11.823Z,51.53
2019-03-20T08:36:11.823Z,52.26
2019-03-20T08:37:11.806Z,51.04
2019-03-20T08:38:18.177Z,52.03
2019-03-20T08:39:12.781Z,48.51
2019-03-20T08:40:11.758Z,50.45
2019-03-20T08:41:11.747Z,50.86
2019-03-20T08:42:11.746Z,50.68
2019-03-20T08:43:11.792Z,50.99
2019-03-20T08:44:11.733Z,50.81
2019-03-20T08:45:11.715Z,51.14
2019-03-20T08:46:11.696Z,51.24
2019-03-20T08:47:11.687Z,51.04
2019-03-20T08:48:11.692Z,51.57
2019-03-20T08:49:11.696Z,52.67
2019-03-20T08:50:11.668Z,51.40
2019-03-20T08:51:11.662Z,50.50
2019-03-20T08:52:11.642Z,50.09
2019-03-20T08:53:11.628Z,50.30
2019-03-20T08:54:11.644Z,50.52
2019-03-20T08:55:11.607Z,51.14
2019-03-20T08:56:11.720Z,51.57
2019-03-20T08:57:11.587Z,50.42
2019-03-20T08:58:11.576Z,50.73
2019-03-20T08:59:11.598Z,50.83
2019-03-20T09:00:11.564Z,51.29
2019-03-20T09:01:11.539Z,51.18
2019-03-20T09:02:11.533Z,51.06
2019-03-20T09:03:11.525Z,50.73
2019-03-20T09:04:11.579Z,50.99
2019-03-20T09:05:11.499Z,50.15
2019-03-20T09:06:11.610Z,49.00
2019-03-20T09:07:11.490Z,48.47
2019-03-20T09:08:11.473Z,48.24
2019-03-20T09:09:11.461Z,48.28
2019-03-20T09:10:11.483Z,48.49
2019-03-20T09:11:11.435Z,48.06
2019-03-20T09:12:11.472Z,45.89
2019-03-20T09:13:11.420Z,45.65
2019-03-20T09:14:11.407Z,45.53
2019-03-20T09:15:11.397Z,45.63
2019-03-20T09:16:11.415Z,46.52
2019-03-20T09:17:12.502Z,45.36
2019-03-20T09:18:11.370Z,44.14
2019-03-20T09:19:11.509Z,44.97
2019-03-20T09:20:11.342Z,45.00
2019-03-20T09:21:11.334Z,43.96
2019-03-20T09:22:11.356Z,44.46
2019-03-20T09:23:11.310Z,43.67
2019-03-20T09:24:11.300Z,44.89
2019-03-20T09:25:11.290Z,44.92
2019-03-20T09:26:11.278Z,45.40
2019-03-20T09:27:11.274Z,45.63
2019-03-20T09:28:11.297Z,44.61
2019-03-20T09:29:18.571Z,44.40
2019-03-20T09:30:12.242Z,43.98
2019-03-20T09:31:11.227Z,42.83
2019-03-20T09:32:11.272Z,43.02
2019-03-20T09:33:11.231Z,42.49
2019-03-20T09:34:11.220Z,42.57
2019-03-20T09:35:11.185Z,41.66
2019-03-20T09:36:11.196Z,43.10
2019-03-20T09:37:11.171Z,41.76
2019-03-20T09:38:11.152Z,41.82
2019-03-20T09:39:11.223Z,40.47
2019-03-20T09:40:11.128Z,40.26
2019-03-20T09:41:11.122Z,40.79
2019-03-20T09:42:11.115Z,40.48
2019-03-20T09:43:11.112Z,40.18
2019-03-20T09:44:11.093Z,42.31
2019-03-20T09:45:11.113Z,42.23
2019-03-20T09:46:11.067Z,44.04
2019-03-20T09:47:11.069Z,39.94
2019-03-20T09:48:11.054Z,40.73
2019-03-20T09:49:11.092Z,39.42
2019-03-20T09:50:11.023Z,37.79
2019-03-20T09:51:11.019Z,38.59
2019-03-20T09:52:11.013Z,38.50
2019-03-20T09:53:11.000Z,40.14
2019-03-20T09:54:11.747Z,40.24
2019-03-20T09:55:11.000Z,39.75
2019-03-20T09:56:10.975Z,40.14
2019-03-20T09:57:10.960Z,38.82
2019-03-20T09:58:11.980Z,38.01
2019-03-20T09:59:10.961Z,40.04
2019-03-20T10:00:10.925Z,42.02
2019-03-20T10:01:10.907Z,40.18
2019-03-20T10:02:10.911Z,39.33
2019-03-20T10:03:10.893Z,37.45
2019-03-20T10:04:10.890Z,38.67
2019-03-20T10:05:10.895Z,38.18
2019-03-20T10:06:10.857Z,37.64
2019-03-20T10:07:10.850Z,37.52
2019-03-20T10:08:10.849Z,37.55
2019-03-20T10:09:10.861Z,39.53
2019-03-20T10:10:10.811Z,39.64
2019-03-20T10:11:10.806Z,39.75
2019-03-20T10:12:10.799Z,37.69
2019-03-20T10:13:10.804Z,36.94
2019-03-20T10:14:10.803Z,36.63
2019-03-20T10:15:10.759Z,36.98
2019-03-20T10:16:10.767Z,37.89
2019-03-20T10:17:10.739Z,36.91
2019-03-20T10:18:10.737Z,39.28
2019-03-20T10:19:10.739Z,39.06
2019-03-20T10:20:11.119Z,37.77
2019-03-20T10:21:10.707Z,37.76
2019-03-20T10:22:10.691Z,37.96
2019-03-20T10:23:10.677Z,39.29
2019-03-20T10:24:10.802Z,37.91
2019-03-20T10:25:10.657Z,37.77
2019-03-20T10:26:10.652Z,36.91
2019-03-20T10:27:10.635Z,36.37
2019-03-20T10:28:10.653Z,35.48
2019-03-20T10:29:10.625Z,36.71
2019-03-20T10:30:10.633Z,37.52
2019-03-20T10:31:10.595Z,37.42
2019-03-20T10:32:10.586Z,37.43
2019-03-20T10:33:10.576Z,36.90
2019-03-20T10:34:10.577Z,35.46
2019-03-20T10:35:10.595Z,36.41
2019-03-20T10:36:10.546Z,35.48
2019-03-20T10:37:10.544Z,36.00
2019-03-20T10:38:10.533Z,34.47
2019-03-20T10:39:10.558Z,34.94
2019-03-20T10:40:10.544Z,34.35
2019-03-20T10:41:10.493Z,34.69
2019-03-20T10:42:10.493Z,34.47
2019-03-20T10:43:10.478Z,35.21
2019-03-20T10:44:10.465Z,34.62
2019-03-20T10:45:10.473Z,34.95
2019-03-20T10:46:10.474Z,35.06
2019-03-20T10:47:11.677Z,33.47
2019-03-20T10:48:10.435Z,35.11
2019-03-20T10:49:10.408Z,35.51
2019-03-20T10:50:10.433Z,34.06
2019-03-20T10:51:10.388Z,34.17
2019-03-20T10:52:10.372Z,33.01
2019-03-20T10:53:10.385Z,32.93
2019-03-20T10:54:10.365Z,33.59
2019-03-20T10:55:10.373Z,29.62
2019-03-20T10:56:10.332Z,28.77
2019-03-20T10:57:10.342Z,28.76
2019-03-20T10:58:10.314Z,28.96
2019-03-20T10:59:10.302Z,29.78
2019-03-20T11:00:10.809Z,29.02
2019-03-20T11:01:10.317Z,29.94
2019-03-20T11:02:10.275Z,29.83
2019-03-20T11:03:10.315Z,29.04
2019-03-20T11:04:10.261Z,30.16
2019-03-20T11:05:10.236Z,30.05
2019-03-20T11:06:10.240Z,30.14
2019-03-20T11:07:10.226Z,28.28
2019-03-20T11:08:12.858Z,29.11
2019-03-20T11:09:18.173Z,28.51
2019-03-20T11:10:11.206Z,28.42
2019-03-20T11:11:10.187Z,28.80
2019-03-20T11:12:10.170Z,27.17
2019-03-20T11:13:10.164Z,28.08
2019-03-20T11:14:10.144Z,27.58
2019-03-20T11:15:10.180Z,27.40
2019-03-20T11:16:10.172Z,28.01
2019-03-20T11:17:10.114Z,29.53
2019-03-20T11:18:10.118Z,29.43
2019-03-20T11:19:10.094Z,29.23
2019-03-20T11:20:10.308Z,28.72
2019-03-20T11:21:10.079Z,29.22
2019-03-20T11:22:18.299Z,28.49
2019-03-20T11:23:11.115Z,28.36
2019-03-20T11:24:10.047Z,28.34
2019-03-20T11:25:10.039Z,25.82
2019-03-20T11:26:10.060Z,27.21
2019-03-20T11:27:10.032Z,24.45
2019-03-20T11:28:10.008Z,24.26
2019-03-20T11:29:10.005Z,24.96
2019-03-20T11:30:09.979Z,24.96
2019-03-20T11:31:09.973Z,26.16
2019-03-20T11:32:09.986Z,25.89
2019-03-20T11:33:09.979Z,26.82
2019-03-20T11:34:09.948Z,26.32
2019-03-20T11:35:09.935Z,24.82
2019-03-20T11:36:09.922Z,25.84
2019-03-20T11:37:09.948Z,26.32
2019-03-20T11:38:09.911Z,26.09
2019-03-20T11:39:09.891Z,24.08
2019-03-20T11:40:09.904Z,24.49
2019-03-20T11:41:09.873Z,23.58
2019-03-20T11:42:09.864Z,24.27
2019-03-20T11:43:09.846Z,24.59
2019-03-20T11:44:09.841Z,25.18
2019-03-20T11:45:09.855Z,24.66
2019-03-20T11:46:09.821Z,24.16
2019-03-20T11:47:09.807Z,24.79
2019-03-20T11:48:09.796Z,25.42
2019-03-20T11:49:09.819Z,24.40
2019-03-20T11:50:09.775Z,25.39
2019-03-20T11:51:09.763Z,24.49
2019-03-20T11:52:10.283Z,24.96
2019-03-20T11:53:09.744Z,23.92
2019-03-20T11:54:09.731Z,22.53
2019-03-20T11:55:09.752Z,22.37
2019-03-20T11:56:09.722Z,22.71
2019-03-20T11:57:09.701Z,24.56
2019-03-20T11:58:09.694Z,25.05
2019-03-20T11:59:09.698Z,24.94
2019-03-20T12:00:09.700Z,23.50
2019-03-20T12:01:09.666Z,24.40
2019-03-20T12:02:09.664Z,22.88
2019-03-20T12:03:09.642Z,24.08
2019-03-20T12:04:09.628Z,24.66
2019-03-20T12:05:09.661Z,22.53
2019-03-20T12:06:09.612Z,23.00
2019-03-20T12:07:09.603Z,21.81
2019-03-20T12:08:09.589Z,22.65
2019-03-20T12:09:09.588Z,21.97
2019-03-20T12:10:09.597Z,22.37
2019-03-20T12:11:09.555Z,23.60
2019-03-20T12:12:09.549Z,23.30
2019-03-20T12:13:09.571Z,23.46
2019-03-20T12:14:09.525Z,23.34
2019-03-20T12:15:09.526Z,21.84
2019-03-20T12:16:09.511Z,20.95
2019-03-20T12:17:09.495Z,21.17
2019-03-20T12:18:09.521Z,20.25
2019-03-20T12:19:09.473Z,21.26
2019-03-20T12:20:09.464Z,21.90
2019-03-20T12:21:09.481Z,22.39
2019-03-20T12:22:09.445Z,22.19
2019-03-20T12:23:09.463Z,22.28
2019-03-20T12:24:09.425Z,22.47
2019-03-20T12:25:09.411Z,22.80
2019-03-20T12:26:09.418Z,23.21
2019-03-20T12:27:15.121Z,22.99
2019-03-20T12:28:10.414Z,22.17
2019-03-20T12:29:09.392Z,20.78
2019-03-20T12:30:09.361Z,22.19
2019-03-20T12:31:09.344Z,22.18
2019-03-20T12:32:09.345Z,20.36
2019-03-20T12:33:09.383Z,20.87
2019-03-20T12:34:09.342Z,21.06
2019-03-20T12:35:09.326Z,21.94
2019-03-20T12:36:09.306Z,21.31
2019-03-20T12:37:09.336Z,21.62
2019-03-20T12:38:14.877Z,21.03
2019-03-20T12:39:10.277Z,21.94
2019-03-20T12:40:09.263Z,21.86
2019-03-20T12:41:09.246Z,22.26
2019-03-20T12:42:09.243Z,21.45
2019-03-20T12:43:09.250Z,22.98
2019-03-20T12:44:09.211Z,23.11
2019-03-20T12:45:09.210Z,23.28
2019-03-20T12:46:09.205Z,22.48
2019-03-20T12:47:09.211Z,23.26
2019-03-20T12:48:09.211Z,22.28
2019-03-20T12:49:09.172Z,22.69
2019-03-20T12:50:09.808Z,22.47
2019-03-20T12:51:09.142Z,22.47
2019-03-20T12:52:09.134Z,21.66